Time;durP1;ratioP1;P1;durP2;ratioP2;P2;SDS_P1;SDS_P2;PMS_P1;PMS_P2;Temp;Humidity;BMP_temperature;BMP_pressure;BME280_temperature;BME280_humidity;BME280_pressure;Samples;Min_cycle;Max_cycle;Signal;HPM_P1;HPM_P2
2023/07/27 00:00:16;;;;;;;;;;;;;;;;;;1271040;23;19928;-19
2023/07/27 00:00:46;;;;;;;;;;;;;;;;;;1271497;23;19908;-17
2023/07/27 00:01:16;;;;;;;;;;;;;;;;;;1271578;23;20411;-20
2023/07/27 00:01:47;;;;;;;;;;;;;;;;;;1271686;23;19931;-17
2023/07/27 00:02:17;;;;;;;;;;;;;;;;;;1271489;23;19904;-18
2023/07/27 00:02:47;;;;;;;;;;;;;;;;;;1271453;23;19958;-19
2023/07/27 00:03:17;;;;;;;;;;;;;;;;;;1271474;23;19905;-19
2023/07/27 00:03:48;;;;;;;;;;;;;;;;;;1271596;23;19909;-19
2023/07/27 00:04:18;;;;;;;;;;;;;;;;;;1271498;23;19904;-16
2023/07/27 00:04:48;;;;;;;;;;;;;;;;;;1271409;23;19947;-19
2023/07/27 00:05:18;;;;;;;;;;;;;;;;;;1271451;23;19905;-19
2023/07/27 00:05:49;;;;;;;;;;;;;;;;;;1271396;23;19987;-17
2023/07/27 00:06:19;;;;;;;;;;;;;;;;;;1271578;23;19911;-19
2023/07/27 00:06:49;;;;;;;;;;;;;;;;;;1271299;23;19912;-16
2023/07/27 00:07:19;;;;;;;;;;;;;;;;;;1271645;23;19905;-20
2023/07/27 00:07:50;;;;;;;;;;;;;;;;;;1271469;23;19908;-18
2023/07/27 00:08:20;;;;;;;;;;;;;;;;;;1271644;23;19917;-21
2023/07/27 00:08:50;;;;;;;;;;;;;;;;;;1271283;23;20333;-18
2023/07/27 00:09:20;;;;;;;;;;;;;;;;;;1271656;23;20329;-19
2023/07/27 00:09:50;;;;;;;;;;;;;;;;;;1271420;23;19919;-20
2023/07/27 00:10:23;;;;;;;;;;;;;;;;;;1271574;23;19905;-20
2023/07/27 00:10:54;;;;;;;;;;;;;;;;;;1271123;23;19904;-18
2023/07/27 00:11:24;;;;;;;;;;;;;;;;;;1271201;23;19905;-17
2023/07/27 00:11:54;;;;;;;;;;;;;;;;;;1271408;23;19904;-21
2023/07/27 00:12:25;;;;;;;;;;;;;;;;;;1271624;23;19912;-15
2023/07/27 00:12:55;;;;;;;;;;;;;;;;;;1271184;23;19913;-19
2023/07/27 00:13:25;;;;;;;;;;;;;;;;;;1271667;23;19912;-20
2023/07/27 00:13:55;;;;;;;;;;;;;;;;;;1271484;23;19904;-20
2023/07/27 00:14:26;;;;;;;;;;;;;;;;;;1271639;23;19987;-20
2023/07/27 00:14:56;;;;;;;;;;;;;;;;;;1271188;23;19905;-19
2023/07/27 00:15:26;;;;;;;;;;;;;;;;;;1271621;23;19905;-17
2023/07/27 00:15:56;;;;;;;;;;;;;;;;;;1271479;23;19927;-18
2023/07/27 00:16:27;;;;;;;;;;;;;;;;;;1271489;23;19912;-16
2023/07/27 00:16:57;;;;;;;;;;;;;;;;;;1271078;23;19915;-17
2023/07/27 00:17:27;;;;;;;;;;;;;;;;;;1271707;23;20218;-20
2023/07/27 00:17:57;;;;;;;;;;;;;;;;;;1271415;23;20379;-19
2023/07/27 00:18:28;;;;;;;;;;;;;;;;;;1271651;23;20349;-19
2023/07/27 00:18:59;;;;;;;;;;;;;;;;;;1271340;23;19904;-18
2023/07/27 00:19:29;;;;;;;;;;;;;;;;;;1271711;23;19905;-17
2023/07/27 00:19:59;;;;;;;;;;;;;;;;;;1271446;23;19904;-19
2023/07/27 00:20:29;;;;;;;;;;;;;;;;;;1271434;23;20015;-19
2023/07/27 00:21:00;;;;;;;;;;;;;;;;;;1271112;23;19901;-17
2023/07/27 00:21:30;;;;;;;;;;;;;;;;;;1271649;23;19966;-21
2023/07/27 00:22:01;;;;;;;;;;;;;;;;;;1271452;23;19916;-18
2023/07/27 00:22:31;;;;;;;;;;;;;;;;;;1271697;23;19911;-21
2023/07/27 00:23:01;;;;;;;;;;;;;;;;;;1271183;23;19905;-21
2023/07/27 00:23:31;;;;;;;;;;;;;;;;;;1271505;23;19905;-20
2023/07/27 00:24:01;;;;;;;;;;;;;;;;;;1271219;23;19950;-21
2023/07/27 00:24:32;;;;;;;;;;;;;;;;;;1271661;23;20335;-19
2023/07/27 00:25:02;;;;;;;;;;;;;;;;;;1271216;23;19905;-18
2023/07/27 00:25:32;;;;;;;;;;;;;;;;;;1271558;23;19928;-19
2023/07/27 00:26:02;;;;;;;;;;;;;;;;;;1271326;23;19901;-20
2023/07/27 00:26:32;;;;;;;;;;;;;;;;;;1271610;23;19905;-20
2023/07/27 00:27:03;;;;;;;;;;;;;;;;;;1271036;23;19904;-19
2023/07/27 00:27:33;;;;;;;;;;;;;;;;;;1271605;23;19905;-19
2023/07/27 00:28:03;;;;;;;;;;;;;;;;;;1271381;23;19912;-18
2023/07/27 00:28:33;;;;;;;;;;;;;;;;;;1271600;23;19904;-19
2023/07/27 00:29:04;;;;;;;;;;;;;;;;;;1271216;23;19912;-18
2023/07/27 00:29:34;;;;;;;;;;;;;;;;;;1271677;23;19943;-21
2023/07/27 00:30:04;;;;;;;;;;;;;;;;;;1271452;23;20313;-18
2023/07/27 00:30:34;;;;;;;;;;;;;;;;;;1271529;23;20006;-17
2023/07/27 00:31:04;;;;;;;;;;;;;;;;;;1271214;23;20238;-19
2023/07/27 00:31:35;;;;;;;;;;;;;;;;;;1271658;23;20257;-18
2023/07/27 00:32:05;;;;;;;;;;;;;;;;;;1271333;23;19905;-17
2023/07/27 00:32:35;;;;;;;;;;;;;;;;;;1271641;23;19905;-19
2023/07/27 00:33:05;;;;;;;;;;;;;;;;;;1271193;23;19904;-16
2023/07/27 00:33:35;;;;;;;;;;;;;;;;;;1271702;23;19912;-19
2023/07/27 00:34:06;;;;;;;;;;;;;;;;;;1271431;23;19905;-20
2023/07/27 00:34:36;;;;;;;;;;;;;;;;;;1271630;23;19905;-20
2023/07/27 00:35:06;;;;;;;;;;;;;;;;;;1271161;23;19904;-17
2023/07/27 00:35:36;;;;;;;;;;;;;;;;;;1271606;23;20318;-18
2023/07/27 00:36:07;;;;;;;;;;;;;;;;;;1271281;23;19928;-19
2023/07/27 00:36:37;;;;;;;;;;;;;;;;;;1271515;23;19912;-20
2023/07/27 00:37:07;;;;;;;;;;;;;;;;;;1271294;23;19904;-18
2023/07/27 00:37:37;;;;;;;;;;;;;;;;;;1271657;23;19904;-17
2023/07/27 00:38:07;;;;;;;;;;;;;;;;;;1271475;23;20312;-21
2023/07/27 00:38:38;;;;;;;;;;;;;;;;;;1271445;23;19912;-20
2023/07/27 00:39:09;;;;;;;;;;;;;;;;;;1271256;23;19953;-16
2023/07/27 00:39:39;;;;;;;;;;;;;;;;;;1271521;23;19999;-18
2023/07/27 00:40:09;;;;;;;;;;;;;;;;;;1271442;23;19905;-21
2023/07/27 00:40:40;;;;;;;;;;;;;;;;;;1271396;23;19916;-19
2023/07/27 00:41:10;;;;;;;;;;;;;;;;;;1271430;23;20038;-20
2023/07/27 00:41:40;;;;;;;;;;;;;;;;;;1271575;23;19917;-19
2023/07/27 00:42:10;;;;;;;;;;;;;;;;;;1271490;23;19919;-20
2023/07/27 00:42:40;;;;;;;;;;;;;;;;;;1271465;23;19912;-19
2023/07/27 00:43:11;;;;;;;;;;;;;;;;;;1271396;23;19912;-20
2023/07/27 00:43:41;;;;;;;;;;;;;;;;;;1271632;23;20342;-21
2023/07/27 00:44:11;;;;;;;;;;;;;;;;;;1271438;23;20325;-19
2023/07/27 00:44:41;;;;;;;;;;;;;;;;;;1271541;23;20386;-18
2023/07/27 00:45:12;;;;;;;;;;;;;;;;;;1271244;23;19905;-18
2023/07/27 00:45:42;;;;;;;;;;;;;;;;;;1271599;23;19908;-19
2023/07/27 00:46:12;;;;;;;;;;;;;;;;;;1271383;23;19905;-20
2023/07/27 00:46:42;;;;;;;;;;;;;;;;;;1271406;23;19915;-18
2023/07/27 00:47:12;;;;;;;;;;;;;;;;;;1271411;23;19904;-19
2023/07/27 00:47:43;;;;;;;;;;;;;;;;;;1271590;23;19965;-18
2023/07/27 00:48:13;;;;;;;;;;;;;;;;;;1271484;23;19954;-20
2023/07/27 00:48:43;;;;;;;;;;;;;;;;;;1271228;23;19909;-17
2023/07/27 00:49:13;;;;;;;;;;;;;;;;;;1271435;23;19905;-19
2023/07/27 00:49:44;;;;;;;;;;;;;;;;;;1271591;23;19909;-20
2023/07/27 00:50:14;;;;;;;;;;;;;;;;;;1271360;23;19905;-20
2023/07/27 00:50:44;;;;;;;;;;;;;;;;;;1271252;23;19908;-18
2023/07/27 00:51:14;;;;;;;;;;;;;;;;;;1271462;23;19923;-17
2023/07/27 00:51:44;;;;;;;;;;;;;;;;;;1271623;23;19936;-19
2023/07/27 00:52:15;;;;;;;;;;;;;;;;;;1271533;23;20025;-21
2023/07/27 00:52:45;;;;;;;;;;;;;;;;;;1271305;23;19944;-20
2023/07/27 00:53:15;;;;;;;;;;;;;;;;;;1271495;23;19987;-19
2023/07/27 00:53:45;;;;;;;;;;;;;;;;;;1271135;23;19991;-18
2023/07/27 00:54:16;;;;;;;;;;;;;;;;;;1271472;23;20336;-20
2023/07/27 00:54:46;;;;;;;;;;;;;;;;;;1271356;23;19908;-20
2023/07/27 00:55:16;;;;;;;;;;;;;;;;;;1271386;23;19951;-19
2023/07/27 00:55:46;;;;;;;;;;;;;;;;;;1271618;23;19908;-20
2023/07/27 00:56:17;;;;;;;;;;;;;;;;;;1271191;23;19905;-18
2023/07/27 00:56:47;;;;;;;;;;;;;;;;;;1271392;23;19908;-18
2023/07/27 00:57:17;;;;;;;;;;;;;;;;;;1271382;23;19905;-18
2023/07/27 00:57:48;;;;;;;;;;;;;;;;;;1271537;23;19909;-20
2023/07/27 00:58:18;;;;;;;;;;;;;;;;;;1271436;23;19983;-20
2023/07/27 00:58:48;;;;;;;;;;;;;;;;;;1271365;23;19931;-19
2023/07/27 00:59:18;;;;;;;;;;;;;;;;;;1271366;23;19950;-19
2023/07/27 00:59:49;;;;;;;;;;;;;;;;;;1271520;23;20241;-18
2023/07/27 01:00:19;;;;;;;;;;;;;;;;;;1271117;23;20362;-18
2023/07/27 01:00:49;;;;;;;;;;;;;;;;;;1264696;23;19905;-17
2023/07/27 01:01:19;;;;;;;;;;;;;;;;;;1265195;23;20265;-17
2023/07/27 01:01:50;;;;;;;;;;;;;;;;;;1264890;23;19905;-21
2023/07/27 01:02:20;;;;;;;;;;;;;;;;;;1265244;23;19913;-20
2023/07/27 01:02:50;;;;;;;;;;;;;;;;;;1271068;23;19936;-16
2023/07/27 01:03:20;;;;;;;;;;;;;;;;;;1271603;23;19913;-19
2023/07/27 01:03:50;;;;;;;;;;;;;;;;;;1271373;23;19912;-20
2023/07/27 01:04:21;;;;;;;;;;;;;;;;;;1271680;23;19905;-18
2023/07/27 01:04:51;;;;;;;;;;;;;;;;;;1271138;23;19943;-19
2023/07/27 01:05:21;;;;;;;;;;;;;;;;;;1271637;23;19904;-20
2023/07/27 01:05:51;;;;;;;;;;;;;;;;;;1271349;23;19904;-19
2023/07/27 01:06:21;;;;;;;;;;;;;;;;;;1271589;23;19912;-19
2023/07/27 01:06:52;;;;;;;;;;;;;;;;;;1271252;23;19904;-19
2023/07/27 01:07:22;;;;;;;;;;;;;;;;;;1271453;23;19965;-21
2023/07/27 01:07:52;;;;;;;;;;;;;;;;;;1271443;23;19936;-19
2023/07/27 01:08:22;;;;;;;;;;;;;;;;;;1271693;23;19911;-21
2023/07/27 01:08:53;;;;;;;;;;;;;;;;;;1271117;23;19905;-19
2023/07/27 01:09:23;;;;;;;;;;;;;;;;;;1271544;23;19905;-19
2023/07/27 01:09:53;;;;;;;;;;;;;;;;;;1271464;23;20038;-20
2023/07/27 01:10:23;;;;;;;;;;;;;;;;;;1271604;23;19905;-17
2023/07/27 01:10:53;;;;;;;;;;;;;;;;;;1271169;23;20012;-16
2023/07/27 01:11:24;;;;;;;;;;;;;;;;;;1271648;23;20237;-18
2023/07/27 01:11:54;;;;;;;;;;;;;;;;;;1271369;23;20249;-20
2023/07/27 01:12:24;;;;;;;;;;;;;;;;;;1271576;23;20004;-21
2023/07/27 01:12:55;;;;;;;;;;;;;;;;;;1271130;23;19904;-17
2023/07/27 01:13:25;;;;;;;;;;;;;;;;;;1271050;23;19943;-19
2023/07/27 01:13:55;;;;;;;;;;;;;;;;;;1271392;23;19991;-19
2023/07/27 01:14:25;;;;;;;;;;;;;;;;;;1271680;23;19905;-19
2023/07/27 01:14:56;;;;;;;;;;;;;;;;;;1271105;23;20336;-20
2023/07/27 01:15:26;;;;;;;;;;;;;;;;;;1271346;23;19912;-19
2023/07/27 01:15:56;;;;;;;;;;;;;;;;;;1271273;23;19905;-17
2023/07/27 01:16:26;;;;;;;;;;;;;;;;;;1271387;23;19905;-19
2023/07/27 01:16:56;;;;;;;;;;;;;;;;;;1270797;23;19911;-20
2023/07/27 01:17:27;;;;;;;;;;;;;;;;;;1271061;23;19905;-19
2023/07/27 01:17:57;;;;;;;;;;;;;;;;;;1271424;23;19911;-17
2023/07/27 01:18:27;;;;;;;;;;;;;;;;;;1271180;23;19983;-19
2023/07/27 01:18:57;;;;;;;;;;;;;;;;;;1271085;23;19904;-17
2023/07/27 01:19:28;;;;;;;;;;;;;;;;;;1271630;23;19919;-18
2023/07/27 01:19:58;;;;;;;;;;;;;;;;;;1271400;23;19905;-18
2023/07/27 01:20:29;;;;;;;;;;;;;;;;;;1271433;23;20333;-17
2023/07/27 01:20:59;;;;;;;;;;;;;;;;;;1270941;23;20313;-19
2023/07/27 01:21:29;;;;;;;;;;;;;;;;;;1271586;23;20340;-19
2023/07/27 01:21:59;;;;;;;;;;;;;;;;;;1270581;23;20323;-19
2023/07/27 01:22:29;;;;;;;;;;;;;;;;;;1271477;23;20249;-18
2023/07/27 01:23:00;;;;;;;;;;;;;;;;;;1270721;23;20236;-20
2023/07/27 01:23:30;;;;;;;;;;;;;;;;;;1269882;23;19982;-21
2023/07/27 01:24:00;;;;;;;;;;;;;;;;;;1269715;23;20340;-19
2023/07/27 01:24:30;;;;;;;;;;;;;;;;;;1270944;23;19912;-18
2023/07/27 01:25:01;;;;;;;;;;;;;;;;;;1270797;23;19904;-18
2023/07/27 01:25:31;;;;;;;;;;;;;;;;;;1270627;23;19908;-18
2023/07/27 01:26:01;;;;;;;;;;;;;;;;;;1270869;23;19908;-21
2023/07/27 01:26:31;;;;;;;;;;;;;;;;;;1271621;23;19909;-19
2023/07/27 01:27:02;;;;;;;;;;;;;;;;;;1271113;23;19932;-18
2023/07/27 01:27:32;;;;;;;;;;;;;;;;;;1271532;23;19961;-18
2023/07/27 01:28:02;;;;;;;;;;;;;;;;;;1271303;23;19927;-20
2023/07/27 01:28:32;;;;;;;;;;;;;;;;;;1271407;23;20240;-19
2023/07/27 01:29:03;;;;;;;;;;;;;;;;;;1271096;23;20309;-19
2023/07/27 01:29:33;;;;;;;;;;;;;;;;;;1271552;23;20318;-19
2023/07/27 01:30:04;;;;;;;;;;;;;;;;;;1271337;23;19923;-21
2023/07/27 01:30:34;;;;;;;;;;;;;;;;;;1270655;23;19909;-20
2023/07/27 01:31:04;;;;;;;;;;;;;;;;;;1270979;23;19904;-20
2023/07/27 01:31:41;;;;;;;;;;;;;;;;;;1270611;23;19951;-20
2023/07/27 01:32:11;;;;;;;;;;;;;;;;;;1271276;23;19912;-17
2023/07/27 01:32:41;;;;;;;;;;;;;;;;;;1271436;23;19916;-19
2023/07/27 01:33:11;;;;;;;;;;;;;;;;;;1271293;23;19904;-18
2023/07/27 01:33:42;;;;;;;;;;;;;;;;;;1271448;23;19935;-20
2023/07/27 01:34:12;;;;;;;;;;;;;;;;;;1271343;23;19911;-17
2023/07/27 01:34:42;;;;;;;;;;;;;;;;;;1271263;23;19909;-17
2023/07/27 01:35:12;;;;;;;;;;;;;;;;;;1271227;23;19905;-18
2023/07/27 01:35:43;;;;;;;;;;;;;;;;;;1270643;23;20442;-20
2023/07/27 01:36:13;;;;;;;;;;;;;;;;;;1271324;23;19983;-19
2023/07/27 01:36:43;;;;;;;;;;;;;;;;;;1271030;23;19923;-20
2023/07/27 01:37:14;;;;;;;;;;;;;;;;;;1271209;23;19908;-17
2023/07/27 01:37:44;;;;;;;;;;;;;;;;;;1271359;23;19916;-19
2023/07/27 01:38:14;;;;;;;;;;;;;;;;;;1271104;23;19905;-18
2023/07/27 01:38:44;;;;;;;;;;;;;;;;;;1271220;23;20322;-19
2023/07/27 01:39:15;;;;;;;;;;;;;;;;;;1271322;23;19905;-16
2023/07/27 01:39:45;;;;;;;;;;;;;;;;;;1271150;23;19909;-16
2023/07/27 01:40:15;;;;;;;;;;;;;;;;;;1271233;23;19912;-17
2023/07/27 01:40:45;;;;;;;;;;;;;;;;;;1270631;23;19916;-17
2023/07/27 01:41:16;;;;;;;;;;;;;;;;;;1270868;23;19904;-19
2023/07/27 01:41:46;;;;;;;;;;;;;;;;;;1271120;23;19908;-18
2023/07/27 01:42:16;;;;;;;;;;;;;;;;;;1271107;23;19905;-21
2023/07/27 01:42:46;;;;;;;;;;;;;;;;;;1271095;23;19909;-16
2023/07/27 01:43:17;;;;;;;;;;;;;;;;;;1271319;23;19912;-18
2023/07/27 01:43:47;;;;;;;;;;;;;;;;;;1271360;23;19909;-17
2023/07/27 01:44:17;;;;;;;;;;;;;;;;;;1271139;23;19905;-20
2023/07/27 01:44:47;;;;;;;;;;;;;;;;;;1271001;23;19947;-17
2023/07/27 01:45:18;;;;;;;;;;;;;;;;;;1270730;23;20006;-17
2023/07/27 01:45:48;;;;;;;;;;;;;;;;;;1264700;23;19909;-17
2023/07/27 01:46:18;;;;;;;;;;;;;;;;;;1264766;23;20401;-19
2023/07/27 01:46:48;;;;;;;;;;;;;;;;;;1264929;23;20409;-19
2023/07/27 01:47:18;;;;;;;;;;;;;;;;;;1264933;23;19984;-18
2023/07/27 01:47:49;;;;;;;;;;;;;;;;;;1271142;23;20352;-18
2023/07/27 01:48:19;;;;;;;;;;;;;;;;;;1271373;23;19905;-18
2023/07/27 01:48:49;;;;;;;;;;;;;;;;;;1271076;23;19904;-19
2023/07/27 01:49:19;;;;;;;;;;;;;;;;;;1271585;23;19912;-21
2023/07/27 01:49:50;;;;;;;;;;;;;;;;;;1270995;23;19987;-16
2023/07/27 01:50:20;;;;;;;;;;;;;;;;;;1271300;23;19904;-21
2023/07/27 01:50:50;;;;;;;;;;;;;;;;;;1270406;23;19966;-19
2023/07/27 01:51:20;;;;;;;;;;;;;;;;;;1271332;23;20348;-19
2023/07/27 01:51:50;;;;;;;;;;;;;;;;;;1271232;23;20308;-21
2023/07/27 01:52:21;;;;;;;;;;;;;;;;;;1271384;23;20332;-20
2023/07/27 01:52:52;;;;;;;;;;;;;;;;;;1270947;23;19983;-21
2023/07/27 01:53:22;;;;;;;;;;;;;;;;;;1271222;23;19912;-19
2023/07/27 01:53:53;;;;;;;;;;;;;;;;;;1271019;23;19912;-20
2023/07/27 01:54:23;;;;;;;;;;;;;;;;;;1271049;23;19905;-20
2023/07/27 01:54:53;;;;;;;;;;;;;;;;;;1270936;23;19904;-18
2023/07/27 01:55:25;;;;;;;;;;;;;;;;;;1271375;23;19905;-20
2023/07/27 01:55:58;;;;;;;;;;;;;;;;;;1271077;22;19908;-20
2023/07/27 01:56:29;;;;;;;;;;;;;;;;;;1271494;23;19987;-19
2023/07/27 01:56:59;;;;;;;;;;;;;;;;;;1270769;23;19960;-19
2023/07/27 01:57:29;;;;;;;;;;;;;;;;;;1271404;23;19954;-21
2023/07/27 01:58:02;;;;;;;;;;;;;;;;;;1271082;23;19905;-18
2023/07/27 01:58:33;;;;;;;;;;;;;;;;;;1271554;23;19904;-15
2023/07/27 01:59:03;;;;;;;;;;;;;;;;;;1270985;23;20318;-19
2023/07/27 01:59:33;;;;;;;;;;;;;;;;;;1271499;23;19947;-18
2023/07/27 02:00:05;;;;;;;;;;;;;;;;;;1271012;23;19996;-19
2023/07/27 02:00:35;;;;;;;;;;;;;;;;;;1270720;23;19909;-20
2023/07/27 02:01:06;;;;;;;;;;;;;;;;;;1270437;23;20039;-16
2023/07/27 02:01:36;;;;;;;;;;;;;;;;;;1271453;23;19905;-18
2023/07/27 02:02:06;;;;;;;;;;;;;;;;;;1271084;23;19905;-17
2023/07/27 02:02:37;;;;;;;;;;;;;;;;;;1271346;23;20355;-20
2023/07/27 02:03:07;;;;;;;;;;;;;;;;;;1271067;23;19911;-19
2023/07/27 02:03:37;;;;;;;;;;;;;;;;;;1270501;23;19905;-16
2023/07/27 02:04:07;;;;;;;;;;;;;;;;;;1270281;23;20558;-20
2023/07/27 02:04:37;;;;;;;;;;;;;;;;;;1271321;23;20317;-19
2023/07/27 02:05:08;;;;;;;;;;;;;;;;;;1271148;23;20413;-18
2023/07/27 02:05:38;;;;;;;;;;;;;;;;;;1270829;23;19912;-19
2023/07/27 02:06:08;;;;;;;;;;;;;;;;;;1270514;23;20404;-19
2023/07/27 02:06:38;;;;;;;;;;;;;;;;;;1271091;23;20245;-19
2023/07/27 02:07:09;;;;;;;;;;;;;;;;;;1270832;23;20222;-16
2023/07/27 02:07:39;;;;;;;;;;;;;;;;;;1270874;23;20332;-20
2023/07/27 02:08:09;;;;;;;;;;;;;;;;;;1271111;23;20229;-19
2023/07/27 02:08:39;;;;;;;;;;;;;;;;;;1271077;23;19915;-21
2023/07/27 02:09:09;;;;;;;;;;;;;;;;;;1271040;23;19905;-19
2023/07/27 02:09:40;;;;;;;;;;;;;;;;;;1271350;23;19909;-18
2023/07/27 02:10:10;;;;;;;;;;;;;;;;;;1271212;23;19916;-18
2023/07/27 02:10:40;;;;;;;;;;;;;;;;;;1269833;23;19935;-18
2023/07/27 02:11:10;;;;;;;;;;;;;;;;;;1270077;23;20333;-21
2023/07/27 02:11:41;;;;;;;;;;;;;;;;;;1270810;23;19932;-19
2023/07/27 02:12:11;;;;;;;;;;;;;;;;;;1270901;23;19912;-19
2023/07/27 02:12:41;;;;;;;;;;;;;;;;;;1271350;23;19991;-18
2023/07/27 02:13:11;;;;;;;;;;;;;;;;;;1271244;23;20329;-17
2023/07/27 02:13:42;;;;;;;;;;;;;;;;;;1271466;23;20321;-16
2023/07/27 02:14:12;;;;;;;;;;;;;;;;;;1271295;23;19905;-17
2023/07/27 02:14:43;;;;;;;;;;;;;;;;;;1271258;23;19909;-19
2023/07/27 02:15:13;;;;;;;;;;;;;;;;;;1271200;23;19935;-21
2023/07/27 02:15:43;;;;;;;;;;;;;;;;;;1271471;23;20222;-17
2023/07/27 02:16:13;;;;;;;;;;;;;;;;;;1271277;23;20233;-19
2023/07/27 02:16:44;;;;;;;;;;;;;;;;;;1271021;23;19921;-21
2023/07/27 02:17:14;;;;;;;;;;;;;;;;;;1271268;23;19905;-20
2023/07/27 02:17:44;;;;;;;;;;;;;;;;;;1271437;23;19908;-20
2023/07/27 02:18:14;;;;;;;;;;;;;;;;;;1271304;23;19955;-19
2023/07/27 02:18:44;;;;;;;;;;;;;;;;;;1271203;23;19913;-20
2023/07/27 02:19:15;;;;;;;;;;;;;;;;;;1271306;23;19904;-16
2023/07/27 02:19:45;;;;;;;;;;;;;;;;;;1271475;23;19909;-21
2023/07/27 02:20:16;;;;;;;;;;;;;;;;;;1271267;23;19912;-19
2023/07/27 02:20:46;;;;;;;;;;;;;;;;;;1270971;23;19909;-21
2023/07/27 02:21:17;;;;;;;;;;;;;;;;;;1271219;23;19954;-18
2023/07/27 02:21:47;;;;;;;;;;;;;;;;;;1271371;23;19959;-18
2023/07/27 02:22:17;;;;;;;;;;;;;;;;;;1271205;23;19939;-16
2023/07/27 02:22:47;;;;;;;;;;;;;;;;;;1271227;23;19919;-18
2023/07/27 02:23:17;;;;;;;;;;;;;;;;;;1271300;23;19948;-19
2023/07/27 02:23:48;;;;;;;;;;;;;;;;;;1271047;23;20000;-19
2023/07/27 02:24:18;;;;;;;;;;;;;;;;;;1271205;23;19905;-19
2023/07/27 02:24:48;;;;;;;;;;;;;;;;;;1271057;23;19909;-18
2023/07/27 02:25:18;;;;;;;;;;;;;;;;;;1271330;23;19911;-17
2023/07/27 02:25:49;;;;;;;;;;;;;;;;;;1271271;23;19904;-19
2023/07/27 02:26:19;;;;;;;;;;;;;;;;;;1271401;23;19905;-18
2023/07/27 02:26:49;;;;;;;;;;;;;;;;;;1264513;23;19905;-16
2023/07/27 02:27:19;;;;;;;;;;;;;;;;;;1264905;23;19905;-18
2023/07/27 02:27:50;;;;;;;;;;;;;;;;;;1264676;23;19999;-17
2023/07/27 02:28:20;;;;;;;;;;;;;;;;;;1265016;23;20301;-16
2023/07/27 02:28:50;;;;;;;;;;;;;;;;;;1271047;23;20260;-19
2023/07/27 02:29:20;;;;;;;;;;;;;;;;;;1271407;23;19995;-19
2023/07/27 02:29:51;;;;;;;;;;;;;;;;;;1271218;23;19913;-19
2023/07/27 02:30:21;;;;;;;;;;;;;;;;;;1271382;23;19904;-16
2023/07/27 02:30:51;;;;;;;;;;;;;;;;;;1271014;23;19932;-19
2023/07/27 02:31:21;;;;;;;;;;;;;;;;;;1271433;23;19912;-20
2023/07/27 02:31:52;;;;;;;;;;;;;;;;;;1271200;23;19987;-16
2023/07/27 02:32:22;;;;;;;;;;;;;;;;;;1271429;23;19904;-17
2023/07/27 02:32:52;;;;;;;;;;;;;;;;;;1270924;23;19905;-20
2023/07/27 02:33:22;;;;;;;;;;;;;;;;;;1271497;23;19905;-20
2023/07/27 02:33:52;;;;;;;;;;;;;;;;;;1271150;23;19932;-19
2023/07/27 02:34:23;;;;;;;;;;;;;;;;;;1271476;23;19904;-18
2023/07/27 02:34:53;;;;;;;;;;;;;;;;;;1271331;23;19995;-19
2023/07/27 02:35:23;;;;;;;;;;;;;;;;;;1271731;23;19904;-17
2023/07/27 02:35:55;;;;;;;;;;;;;;;;;;1271305;23;19905;-19
2023/07/27 02:36:25;;;;;;;;;;;;;;;;;;1271581;23;19905;-19
2023/07/27 02:36:55;;;;;;;;;;;;;;;;;;1271256;23;19940;-21
2023/07/27 02:37:25;;;;;;;;;;;;;;;;;;1265220;23;20035;-18
2023/07/27 02:37:55;;;;;;;;;;;;;;;;;;1265057;23;19905;-18
2023/07/27 02:38:26;;;;;;;;;;;;;;;;;;1265334;23;19904;-18
2023/07/27 02:38:56;;;;;;;;;;;;;;;;;;1264846;23;19915;-18
2023/07/27 02:39:26;;;;;;;;;;;;;;;;;;1271709;23;19904;-19
2023/07/27 02:39:56;;;;;;;;;;;;;;;;;;1271485;23;19912;-18
2023/07/27 02:40:27;;;;;;;;;;;;;;;;;;1271781;23;20302;-18
2023/07/27 02:40:57;;;;;;;;;;;;;;;;;;1271318;23;20409;-19
2023/07/27 02:41:27;;;;;;;;;;;;;;;;;;1271706;23;19904;-17
2023/07/27 02:41:57;;;;;;;;;;;;;;;;;;1271429;23;19905;-19
2023/07/27 02:42:28;;;;;;;;;;;;;;;;;;1271772;23;20321;-20
2023/07/27 02:42:58;;;;;;;;;;;;;;;;;;1271230;23;20157;-19
2023/07/27 02:43:28;;;;;;;;;;;;;;;;;;1271750;23;19905;-20
2023/07/27 02:43:58;;;;;;;;;;;;;;;;;;1271515;23;19904;-19
2023/07/27 02:44:28;;;;;;;;;;;;;;;;;;1271678;23;19908;-21
2023/07/27 02:44:59;;;;;;;;;;;;;;;;;;1271311;23;19905;-16
2023/07/27 02:45:29;;;;;;;;;;;;;;;;;;1271585;23;19908;-20
2023/07/27 02:45:59;;;;;;;;;;;;;;;;;;1271415;23;19912;-18
2023/07/27 02:46:30;;;;;;;;;;;;;;;;;;1271691;23;19935;-19
2023/07/27 02:47:00;;;;;;;;;;;;;;;;;;1271314;23;19905;-16
2023/07/27 02:47:30;;;;;;;;;;;;;;;;;;1271707;23;19913;-20
2023/07/27 02:48:00;;;;;;;;;;;;;;;;;;1271518;23;19912;-16
2023/07/27 02:48:31;;;;;;;;;;;;;;;;;;1271741;23;19963;-18
2023/07/27 02:49:01;;;;;;;;;;;;;;;;;;1271283;23;19957;-18
2023/07/27 02:49:31;;;;;;;;;;;;;;;;;;1271743;23;19905;-17
2023/07/27 02:50:01;;;;;;;;;;;;;;;;;;1271549;23;19905;-19
2023/07/27 02:50:31;;;;;;;;;;;;;;;;;;1271706;23;19908;-19
2023/07/27 02:51:02;;;;;;;;;;;;;;;;;;1271084;23;20356;-18
2023/07/27 02:51:32;;;;;;;;;;;;;;;;;;1271737;23;20321;-17
2023/07/27 02:52:02;;;;;;;;;;;;;;;;;;1271438;23;20318;-19
2023/07/27 02:52:32;;;;;;;;;;;;;;;;;;1271812;23;19905;-21
2023/07/27 02:53:02;;;;;;;;;;;;;;;;;;1271246;23;19978;-20
2023/07/27 02:53:33;;;;;;;;;;;;;;;;;;1271400;23;19905;-19
2023/07/27 02:54:03;;;;;;;;;;;;;;;;;;1271444;23;20370;-20
2023/07/27 02:54:33;;;;;;;;;;;;;;;;;;1271643;23;20310;-21
2023/07/27 02:55:03;;;;;;;;;;;;;;;;;;1271181;23;19987;-19
2023/07/27 02:55:34;;;;;;;;;;;;;;;;;;1271640;23;19958;-20
2023/07/27 02:56:04;;;;;;;;;;;;;;;;;;1271406;23;19908;-19
2023/07/27 02:56:34;;;;;;;;;;;;;;;;;;1271663;23;19951;-19
2023/07/27 02:57:04;;;;;;;;;;;;;;;;;;1271248;23;19904;-18
2023/07/27 02:57:35;;;;;;;;;;;;;;;;;;1271783;23;19904;-18
2023/07/27 02:58:06;;;;;;;;;;;;;;;;;;1271344;23;20272;-21
2023/07/27 02:58:36;;;;;;;;;;;;;;;;;;1271689;23;19991;-18
2023/07/27 02:59:06;;;;;;;;;;;;;;;;;;1271307;23;19911;-21
2023/07/27 02:59:36;;;;;;;;;;;;;;;;;;1271218;23;19905;-20
2023/07/27 03:00:08;;;;;;;;;;;;;;;;;;1271173;23;19940;-18
2023/07/27 03:00:39;;;;;;;;;;;;;;;;;;1271499;23;19970;-19
2023/07/27 03:01:09;;;;;;;;;;;;;;;;;;1271336;23;20353;-20
2023/07/27 03:01:39;;;;;;;;;;;;;;;;;;1271439;23;20267;-15
2023/07/27 03:02:09;;;;;;;;;;;;;;;;;;1271541;23;20233;-17
2023/07/27 03:02:40;;;;;;;;;;;;;;;;;;1271559;23;19947;-20
2023/07/27 03:03:10;;;;;;;;;;;;;;;;;;1270937;23;19942;-18
2023/07/27 03:03:40;;;;;;;;;;;;;;;;;;1271515;23;19913;-17
2023/07/27 03:04:10;;;;;;;;;;;;;;;;;;1271403;23;19913;-20
2023/07/27 03:04:40;;;;;;;;;;;;;;;;;;1271597;23;19965;-20
2023/07/27 03:05:11;;;;;;;;;;;;;;;;;;1271249;23;20025;-17
2023/07/27 03:05:41;;;;;;;;;;;;;;;;;;1271552;23;20359;-21
2023/07/27 03:06:11;;;;;;;;;;;;;;;;;;1271324;23;19905;-19
2023/07/27 03:06:43;;;;;;;;;;;;;;;;;;1271547;23;19909;-19
2023/07/27 03:07:13;;;;;;;;;;;;;;;;;;1271357;23;19905;-20
2023/07/27 03:07:43;;;;;;;;;;;;;;;;;;1271508;23;19991;-20
2023/07/27 03:08:13;;;;;;;;;;;;;;;;;;1271471;23;19904;-17
2023/07/27 03:08:43;;;;;;;;;;;;;;;;;;1271532;23;19908;-20
2023/07/27 03:09:14;;;;;;;;;;;;;;;;;;1271502;23;19904;-21
2023/07/27 03:09:44;;;;;;;;;;;;;;;;;;1271201;23;20245;-19
2023/07/27 03:10:14;;;;;;;;;;;;;;;;;;1271355;23;19904;-18
2023/07/27 03:10:44;;;;;;;;;;;;;;;;;;1271482;23;19916;-20
2023/07/27 03:11:15;;;;;;;;;;;;;;;;;;1271483;23;19905;-17
2023/07/27 03:11:45;;;;;;;;;;;;;;;;;;1271693;23;19909;-19
2023/07/27 03:12:15;;;;;;;;;;;;;;;;;;1271474;23;19905;-21
2023/07/27 03:12:45;;;;;;;;;;;;;;;;;;1264885;23;19963;-20
2023/07/27 03:13:16;;;;;;;;;;;;;;;;;;1265045;23;19905;-20
2023/07/27 03:13:46;;;;;;;;;;;;;;;;;;1265169;23;19932;-18
2023/07/27 03:14:16;;;;;;;;;;;;;;;;;;1264985;23;19905;-16
2023/07/27 03:14:46;;;;;;;;;;;;;;;;;;1271493;23;19908;-17
2023/07/27 03:15:16;;;;;;;;;;;;;;;;;;1271465;23;19951;-19
2023/07/27 03:15:47;;;;;;;;;;;;;;;;;;1271584;23;19916;-17
2023/07/27 03:16:17;;;;;;;;;;;;;;;;;;1271394;23;19904;-19
2023/07/27 03:16:47;;;;;;;;;;;;;;;;;;1271230;23;19921;-19
2023/07/27 03:17:18;;;;;;;;;;;;;;;;;;1271527;23;19912;-19
2023/07/27 03:17:48;;;;;;;;;;;;;;;;;;1271673;23;19908;-17
2023/07/27 03:18:18;;;;;;;;;;;;;;;;;;1271569;23;19990;-18
2023/07/27 03:18:48;;;;;;;;;;;;;;;;;;1271231;23;19995;-17
2023/07/27 03:19:18;;;;;;;;;;;;;;;;;;1271539;23;19909;-19
2023/07/27 03:19:49;;;;;;;;;;;;;;;;;;1271483;23;19904;-20
2023/07/27 03:20:19;;;;;;;;;;;;;;;;;;1271498;23;19962;-21
2023/07/27 03:20:49;;;;;;;;;;;;;;;;;;1271050;23;19905;-19
2023/07/27 03:21:19;;;;;;;;;;;;;;;;;;1271646;23;19912;-21
2023/07/27 03:21:50;;;;;;;;;;;;;;;;;;1271233;23;19905;-17
2023/07/27 03:22:20;;;;;;;;;;;;;;;;;;1271443;23;19912;-18
2023/07/27 03:22:50;;;;;;;;;;;;;;;;;;1271174;23;20280;-20
2023/07/27 03:23:20;;;;;;;;;;;;;;;;;;1271644;23;20252;-20
2023/07/27 03:23:51;;;;;;;;;;;;;;;;;;1271138;23;19913;-17
2023/07/27 03:24:21;;;;;;;;;;;;;;;;;;1271692;23;20237;-21
2023/07/27 03:24:52;;;;;;;;;;;;;;;;;;1271187;23;19905;-20
2023/07/27 03:25:22;;;;;;;;;;;;;;;;;;1271593;23;19950;-18
2023/07/27 03:25:52;;;;;;;;;;;;;;;;;;1271478;23;19904;-19
2023/07/27 03:26:22;;;;;;;;;;;;;;;;;;1271647;23;19912;-20
2023/07/27 03:26:53;;;;;;;;;;;;;;;;;;1271263;23;19911;-20